This is the latest recevied weather packets stored in our database for station/object HB9ZRH-10. If no packets are shown the sender has not sent any weather packets the latest 1 day(s).
| Time | Temp. | Humidity | Pressure | Rain* | Wind** | Luminosity | Snow |
|---|---|---|---|---|---|---|---|
| 1778077436 | 21.11° C | 49% | 1008.5 hPa | - | - | - | - |
| 1778077136 | 20° C | 50% | 1008.5 hPa | - | - | - | - |
| 1778076836 | 17.22° C | 52% | 1008.5 hPa | - | - | - | - |
| 1778076536 | 19.44° C | 50% | 1008.4 hPa | - | - | - | - |
| 1778076236 | 15.56° C | 54% | 1008.3 hPa | - | - | - | - |
| 1778075636 | 19.44° C | 50% | 1008.3 hPa | - | - | - | - |
| 1778075336 | 17.78° C | 52% | 1008.3 hPa | - | - | - | - |
| 1778075036 | 17.78° C | 51% | 1008.2 hPa | - | - | - | - |
| 1778074736 | 20.56° C | 49% | 1008.1 hPa | - | - | - | - |
| 1778074436 | 20° C | 51% | 1008.2 hPa | - | - | - | - |
| 1778074136 | 18.89° C | 50% | 1008.3 hPa | - | - | - | - |
| 1778073836 | 19.44° C | 52% | 1008.3 hPa | - | - | - | - |
| 1778073536 | 20° C | 53% | 1008.3 hPa | - | - | - | - |
| 1778072936 | 15.56° C | 54% | 1008.3 hPa | - | - | - | - |
| 1778072636 | 15° C | 55% | 1008.2 hPa | - | - | - | - |
| 1778072336 | 13.33° C | 57% | 1008 hPa | - | - | - | - |
| 1778072036 | 15° C | 55% | 1007.9 hPa | - | - | - | - |
| 1778071736 | 17.22° C | 51% | 1007.8 hPa | - | - | - | - |
| 1778071436 | 16.11° C | 54% | 1007.7 hPa | - | - | - | - |
| 1778071136 | 16.67° C | 55% | 1007.5 hPa | - | - | - | - |
| 1778070836 | 15° C | 57% | 1007.5 hPa | - | - | - | - |
| 1778070536 | 15.56° C | 56% | 1007.1 hPa | - | - | - | - |
| 1778070236 | 13.33° C | 56% | 1007.3 hPa | - | - | - | - |
| 1778069936 | 12.78° C | 56% | 1007.1 hPa | - | - | - | - |
| 1778069336 | 16.11° C | 54% | 1006.8 hPa | - | - | - | - |
* Rain since midnight (hover to see other rain measurements)
** Current wind speed in m/s (hover to see current wind gust speed)